createdAt,value
2022-08-20T00:00:39.546Z,93.00
2022-08-20T00:03:13.843Z,93.00
2022-08-20T00:05:43.614Z,93.10
2022-08-20T00:08:10.029Z,93.10
2022-08-20T00:10:39.007Z,93.20
2022-08-20T00:13:08.626Z,93.30
2022-08-20T00:15:39.356Z,93.40
2022-08-20T00:18:06.805Z,93.40
2022-08-20T00:20:37.960Z,93.40
2022-08-20T00:23:10.210Z,93.40
2022-08-20T00:25:39.770Z,93.40
2022-08-20T00:28:06.442Z,93.30
2022-08-20T00:30:35.494Z,93.30
2022-08-20T00:33:05.567Z,93.20
2022-08-20T00:35:35.364Z,93.20
2022-08-20T00:38:02.024Z,93.30
2022-08-20T00:40:34.339Z,93.30
2022-08-20T00:43:02.435Z,93.40
2022-08-20T00:45:31.496Z,93.30
2022-08-20T00:47:58.508Z,93.20
2022-08-20T00:50:37.039Z,93.20
2022-08-20T00:53:09.391Z,93.10
2022-08-20T00:55:36.254Z,93.10
2022-08-20T00:58:09.192Z,93.10
2022-08-20T01:00:45.323Z,93.10
2022-08-20T01:03:14.317Z,93.20
2022-08-20T01:05:44.789Z,93.30
2022-08-20T01:08:11.833Z,93.60
2022-08-20T01:10:41.003Z,93.90
2022-08-20T01:13:10.486Z,94.00
2022-08-20T01:15:43.325Z,94.00
2022-08-20T01:18:13.044Z,94.20
2022-08-20T01:21:00.453Z,94.20
2022-08-20T01:23:53.591Z,94.20
2022-08-20T01:26:24.662Z,94.30
2022-08-20T01:28:54.848Z,94.60
2022-08-20T01:31:27.513Z,94.90
2022-08-20T01:33:56.360Z,95.10
2022-08-20T01:36:44.213Z,95.20
2022-08-20T01:39:15.447Z,95.30
2022-08-20T01:42:04.062Z,95.20
2022-08-20T01:44:32.121Z,95.50
2022-08-20T01:47:12.539Z,95.20
2022-08-20T01:49:45.896Z,95.20
2022-08-20T01:52:26.518Z,95.30
2022-08-20T01:54:52.892Z,95.40
2022-08-20T01:57:22.989Z,95.40
2022-08-20T01:59:50.137Z,95.30
2022-08-20T02:02:16.581Z,95.30
2022-08-20T02:04:43.038Z,95.20
2022-08-20T02:07:18.916Z,95.30
2022-08-20T02:09:46.033Z,95.30
2022-08-20T02:12:13.644Z,95.50
2022-08-20T02:14:50.514Z,95.20
2022-08-20T02:17:18.371Z,95.30
2022-08-20T02:19:55.367Z,95.30
2022-08-20T02:22:38.793Z,95.50
2022-08-20T02:25:08.271Z,95.10
2022-08-20T02:27:36.285Z,95.10
2022-08-20T02:30:10.348Z,95.10
2022-08-20T02:32:46.294Z,95.00
2022-08-20T02:35:12.960Z,95.00
2022-08-20T02:37:41.268Z,95.10
2022-08-20T02:40:11.562Z,95.00
2022-08-20T02:42:41.280Z,94.80
2022-08-20T02:45:10.841Z,94.70
2022-08-20T02:47:44.785Z,94.70
2022-08-20T02:50:15.075Z,94.70
2022-08-20T02:52:42.201Z,94.70
2022-08-20T02:55:25.309Z,94.80
2022-08-20T02:57:58.452Z,94.80
2022-08-20T03:00:26.713Z,94.70
2022-08-20T03:02:53.109Z,94.60
2022-08-20T03:05:19.393Z,94.60
2022-08-20T03:07:48.765Z,94.60
2022-08-20T03:10:15.365Z,94.60
2022-08-20T03:12:41.737Z,94.60
2022-08-20T03:15:17.746Z,94.60
2022-08-20T03:17:44.799Z,94.60
2022-08-20T03:20:12.197Z,94.60
2022-08-20T03:22:39.827Z,94.60
2022-08-20T03:25:10.104Z,94.60
2022-08-20T03:27:36.762Z,94.70
2022-08-20T03:30:05.724Z,94.70
2022-08-20T03:32:32.017Z,94.70
2022-08-20T03:34:58.137Z,94.60
2022-08-20T03:37:24.671Z,94.60
2022-08-20T03:39:51.920Z,94.60
2022-08-20T03:42:18.129Z,94.60
2022-08-20T03:44:44.260Z,94.70
2022-08-20T03:47:10.443Z,94.90
2022-08-20T03:49:36.747Z,95.00
2022-08-20T03:52:04.635Z,95.10
2022-08-20T03:54:32.020Z,95.20
2022-08-20T03:56:58.997Z,95.30
2022-08-20T03:59:25.185Z,95.40
2022-08-20T04:01:51.974Z,95.50
2022-08-20T04:04:18.816Z,95.60
2022-08-20T04:06:46.452Z,95.60
2022-08-20T04:09:13.618Z,95.70
2022-08-20T04:11:41.045Z,95.70
2022-08-20T04:14:09.208Z,95.70
2022-08-20T04:16:37.412Z,95.70
2022-08-20T04:19:04.495Z,95.60
2022-08-20T04:21:32.877Z,95.60
2022-08-20T04:24:01.573Z,95.60
2022-08-20T04:26:27.971Z,95.60
2022-08-20T04:28:55.001Z,95.50
2022-08-20T04:31:25.195Z,95.50
2022-08-20T04:33:51.779Z,95.40
2022-08-20T04:36:19.466Z,95.30
2022-08-20T04:38:50.494Z,95.40
2022-08-20T04:41:22.743Z,95.40
2022-08-20T04:43:54.794Z,95.40
2022-08-20T04:46:23.212Z,95.40
2022-08-20T04:48:50.407Z,95.40
2022-08-20T04:51:24.305Z,95.50
2022-08-20T04:53:53.794Z,95.60
2022-08-20T04:56:26.361Z,95.60
2022-08-20T04:58:54.765Z,95.70
2022-08-20T05:01:23.130Z,95.70
2022-08-20T05:03:56.256Z,95.60
2022-08-20T05:06:26.817Z,95.60
2022-08-20T05:08:54.197Z,95.60
2022-08-20T05:11:34.081Z,95.60
2022-08-20T05:14:04.726Z,95.70
2022-08-20T05:16:36.970Z,95.80
2022-08-20T05:19:03.466Z,95.80
2022-08-20T05:21:29.595Z,95.80
2022-08-20T05:23:55.749Z,95.90
2022-08-20T05:26:25.542Z,95.80
2022-08-20T05:28:58.372Z,95.70
2022-08-20T05:31:33.290Z,95.70
2022-08-20T05:34:08.978Z,95.70
2022-08-20T05:36:36.140Z,95.80
2022-08-20T05:39:02.765Z,95.80
2022-08-20T05:41:30.589Z,95.90
2022-08-20T05:44:00.722Z,95.80
2022-08-20T05:46:27.505Z,95.70
2022-08-20T05:48:53.588Z,95.70
2022-08-20T05:51:19.712Z,95.50
2022-08-20T05:53:45.816Z,95.50
2022-08-20T05:56:11.884Z,95.00
2022-08-20T05:58:38.574Z,94.20
2022-08-20T06:01:05.101Z,93.40
2022-08-20T06:03:49.749Z,92.70
2022-08-20T06:06:32.204Z,92.00
2022-08-20T06:09:02.231Z,91.20
2022-08-20T06:11:28.813Z,90.50
2022-08-20T06:13:55.270Z,89.70
2022-08-20T06:16:21.411Z,88.20
2022-08-20T06:18:48.253Z,86.90
2022-08-20T06:21:14.947Z,85.60
2022-08-20T06:23:54.109Z,84.50
2022-08-20T06:26:30.038Z,83.00
2022-08-20T06:28:58.477Z,81.70
2022-08-20T06:31:24.671Z,80.30
2022-08-20T06:33:51.114Z,79.10
2022-08-20T06:36:18.893Z,77.80
2022-08-20T06:38:45.911Z,76.70
2022-08-20T06:41:12.046Z,75.20
2022-08-20T06:43:39.775Z,74.20
2022-08-20T06:46:06.224Z,73.00
2022-08-20T06:48:32.371Z,71.80
2022-08-20T06:50:58.602Z,70.50
2022-08-20T06:53:24.872Z,69.80
2022-08-20T06:56:00.283Z,68.60
2022-08-20T06:58:36.333Z,66.60
2022-08-20T07:01:09.584Z,66.00
2022-08-20T07:03:38.041Z,64.10
2022-08-20T07:06:04.821Z,63.10
2022-08-20T07:08:31.001Z,62.60
2022-08-20T07:10:57.422Z,61.70
2022-08-20T07:13:23.784Z,60.20
2022-08-20T07:15:53.102Z,58.90
2022-08-20T07:18:28.496Z,57.80
2022-08-20T07:20:56.198Z,58.30
2022-08-20T07:23:23.343Z,57.50
2022-08-20T07:25:49.876Z,57.50
2022-08-20T07:28:19.414Z,56.30
2022-08-20T07:31:13.731Z,55.20
2022-08-20T07:33:42.583Z,54.80
2022-08-20T07:36:14.458Z,54.40
2022-08-20T07:38:41.035Z,52.70
2022-08-20T07:41:12.969Z,52.00
2022-08-20T07:43:40.689Z,51.40
2022-08-20T07:46:08.668Z,48.50
2022-08-20T07:48:39.179Z,48.90
2022-08-20T07:51:07.898Z,48.50
2022-08-20T07:53:38.324Z,48.50
2022-08-20T07:56:11.362Z,47.20
2022-08-20T07:58:41.985Z,46.30
2022-08-20T08:01:10.295Z,46.40
2022-08-20T08:03:49.310Z,45.90
2022-08-20T08:06:29.966Z,43.50
2022-08-20T08:09:10.497Z,43.30
2022-08-20T08:11:46.985Z,43.90
2022-08-20T08:14:16.262Z,42.10
2022-08-20T08:16:47.549Z,42.40
2022-08-20T08:19:17.164Z,41.10
2022-08-20T08:21:44.758Z,41.50
2022-08-20T08:24:12.717Z,42.00
2022-08-20T08:26:41.244Z,41.60
2022-08-20T08:29:08.921Z,40.30
2022-08-20T08:31:35.691Z,39.60
2022-08-20T08:34:02.114Z,38.30
2022-08-20T08:36:38.594Z,37.50
2022-08-20T08:39:05.154Z,37.70
2022-08-20T08:41:56.666Z,37.60
2022-08-20T08:44:27.193Z,38.10
2022-08-20T08:47:18.467Z,36.40
2022-08-20T08:49:47.228Z,35.60
2022-08-20T08:52:31.006Z,35.80
2022-08-20T08:55:03.920Z,35.00
2022-08-20T08:57:31.521Z,34.20
2022-08-20T09:00:11.338Z,34.00
2022-08-20T09:02:38.542Z,32.30
2022-08-20T09:05:15.412Z,32.20
2022-08-20T09:07:45.138Z,32.70
2022-08-20T09:10:11.534Z,31.50
2022-08-20T09:12:37.993Z,31.10
2022-08-20T09:15:05.085Z,30.30
2022-08-20T09:17:31.304Z,29.70
2022-08-20T09:19:57.571Z,30.00
2022-08-20T09:22:25.283Z,29.60
2022-08-20T09:24:51.924Z,29.00
2022-08-20T09:27:18.318Z,29.10
2022-08-20T09:29:45.189Z,28.60
2022-08-20T09:32:18.280Z,28.80
2022-08-20T09:34:47.339Z,28.30
2022-08-20T09:37:14.820Z,28.20
2022-08-20T09:39:42.307Z,27.40
2022-08-20T09:42:17.721Z,28.30
2022-08-20T09:44:44.650Z,27.00
2022-08-20T09:47:11.929Z,27.40
2022-08-20T09:49:39.142Z,27.50
2022-08-20T09:52:22.557Z,26.80
2022-08-20T09:54:50.226Z,26.60
2022-08-20T09:57:17.297Z,26.50
2022-08-20T09:59:44.690Z,27.20
2022-08-20T10:02:11.049Z,26.90
2022-08-20T10:04:37.343Z,26.50
2022-08-20T10:07:08.406Z,26.50
2022-08-20T10:09:37.853Z,26.10
2022-08-20T10:12:07.567Z,26.30
2022-08-20T10:14:34.061Z,26.80
2022-08-20T10:17:01.969Z,26.20
2022-08-20T10:19:29.599Z,25.40
2022-08-20T10:21:56.426Z,26.20
2022-08-20T10:24:23.368Z,26.20
2022-08-20T10:26:52.139Z,26.20
2022-08-20T10:29:18.205Z,26.10
2022-08-20T10:31:44.357Z,27.20
2022-08-20T10:34:10.637Z,26.40
2022-08-20T10:36:37.082Z,26.20
2022-08-20T10:39:03.356Z,26.10
2022-08-20T10:41:29.591Z,26.50
2022-08-20T10:43:55.981Z,26.10
2022-08-20T10:46:22.318Z,26.20
2022-08-20T10:48:49.411Z,26.10
2022-08-20T10:51:15.624Z,26.60
2022-08-20T10:53:42.322Z,26.90
2022-08-20T10:56:10.876Z,26.20
2022-08-20T10:58:40.129Z,26.20
2022-08-20T11:01:08.315Z,26.70
2022-08-20T11:03:34.844Z,26.30
2022-08-20T11:06:01.671Z,25.60
2022-08-20T11:08:34.352Z,25.80
2022-08-20T11:11:03.057Z,25.60
2022-08-20T11:13:29.153Z,25.40
2022-08-20T11:15:55.614Z,25.60
2022-08-20T11:18:21.820Z,25.30
2022-08-20T11:20:48.234Z,25.90
2022-08-20T11:23:16.644Z,25.60
2022-08-20T11:25:42.823Z,25.30
2022-08-20T11:28:09.266Z,25.30
2022-08-20T11:30:37.146Z,24.90
2022-08-20T11:33:03.924Z,25.50
2022-08-20T11:35:48.687Z,25.30
2022-08-20T11:38:16.774Z,25.80
2022-08-20T11:40:42.997Z,26.20
2022-08-20T11:43:14.575Z,26.20
2022-08-20T11:45:43.525Z,27.20
2022-08-20T11:48:12.624Z,26.60
2022-08-20T11:50:39.067Z,26.10
2022-08-20T11:53:05.626Z,26.20
2022-08-20T11:55:34.693Z,26.20
2022-08-20T11:58:01.864Z,26.10
2022-08-20T12:00:32.619Z,26.30
2022-08-20T12:03:01.209Z,26.80
2022-08-20T12:05:28.866Z,27.40
2022-08-20T12:07:54.982Z,27.40
2022-08-20T12:10:23.983Z,27.00
2022-08-20T12:12:50.222Z,26.50
2022-08-20T12:15:16.563Z,27.10
2022-08-20T12:17:43.098Z,26.50
2022-08-20T12:20:12.429Z,27.40
2022-08-20T12:22:38.596Z,28.10
2022-08-20T12:25:08.630Z,28.90
2022-08-20T12:27:36.248Z,29.50
2022-08-20T12:30:07.555Z,30.00
2022-08-20T12:32:34.938Z,30.60
2022-08-20T12:35:02.620Z,31.30
2022-08-20T12:37:30.987Z,31.30
2022-08-20T12:40:00.240Z,31.30
2022-08-20T12:42:30.158Z,32.10
2022-08-20T12:44:58.384Z,32.50
2022-08-20T12:47:31.285Z,31.50
2022-08-20T12:50:05.048Z,30.00
2022-08-20T12:52:31.506Z,29.10
2022-08-20T12:54:59.432Z,29.10
2022-08-20T13:00:15.293Z,28.00
2022-08-20T13:02:42.064Z,28.60
2022-08-20T13:05:10.355Z,28.60
2022-08-20T13:07:38.790Z,29.10
2022-08-20T13:10:07.144Z,28.70
2022-08-20T13:12:33.917Z,29.90
2022-08-20T13:15:00.172Z,30.60
2022-08-20T13:17:38.209Z,31.00
2022-08-20T13:20:08.467Z,31.30
2022-08-20T13:22:34.657Z,32.00
2022-08-20T13:25:00.753Z,32.20
2022-08-20T13:27:27.109Z,32.20
2022-08-20T13:29:58.389Z,31.50
2022-08-20T13:32:25.562Z,32.90
2022-08-20T13:34:51.770Z,32.80
2022-08-20T13:37:25.319Z,33.00
2022-08-20T13:39:53.029Z,33.40
2022-08-20T13:42:19.700Z,32.70
2022-08-20T13:44:47.250Z,32.20
2022-08-20T13:47:14.902Z,33.00
2022-08-20T13:49:41.285Z,33.80
2022-08-20T13:52:07.745Z,33.60
2022-08-20T13:54:35.233Z,33.00
2022-08-20T13:57:06.469Z,33.00
2022-08-20T13:59:39.227Z,32.80
2022-08-20T14:02:07.669Z,33.20
2022-08-20T14:04:34.253Z,33.40
2022-08-20T14:07:11.353Z,34.40
2022-08-20T14:09:39.485Z,34.30
2022-08-20T14:12:10.883Z,34.00
2022-08-20T14:14:37.577Z,33.20
2022-08-20T14:17:34.538Z,34.00
2022-08-20T14:20:08.057Z,34.50
2022-08-20T14:22:36.621Z,34.10
2022-08-20T14:25:05.528Z,34.50
2022-08-20T14:27:33.292Z,36.20
2022-08-20T14:30:00.899Z,35.60
2022-08-20T14:32:27.527Z,36.50
2022-08-20T14:34:55.910Z,37.80
2022-08-20T14:37:27.368Z,37.90
2022-08-20T14:39:56.757Z,38.90
2022-08-20T14:42:26.291Z,39.80
2022-08-20T14:44:53.611Z,40.80
2022-08-20T14:47:24.334Z,41.80
2022-08-20T14:49:52.394Z,42.00
2022-08-20T14:52:20.162Z,42.10
2022-08-20T14:54:49.094Z,42.90
2022-08-20T14:57:16.261Z,43.40
2022-08-20T14:59:42.766Z,43.50
2022-08-20T15:02:11.831Z,42.90
2022-08-20T15:04:39.384Z,43.10
2022-08-20T15:07:13.663Z,43.50
2022-08-20T15:09:42.575Z,43.20
2022-08-20T15:12:09.030Z,43.80
2022-08-20T15:14:35.385Z,43.80
2022-08-20T15:17:05.772Z,43.80
2022-08-20T15:19:32.023Z,44.50
2022-08-20T15:21:58.133Z,44.90
2022-08-20T15:24:24.316Z,45.10
2022-08-20T15:26:50.466Z,45.80
2022-08-20T15:29:18.161Z,45.80
2022-08-20T15:31:49.940Z,46.50
2022-08-20T15:34:17.766Z,47.10
2022-08-20T15:36:44.761Z,47.70
2022-08-20T15:39:16.914Z,48.00
2022-08-20T15:41:43.239Z,48.20
2022-08-20T15:44:09.700Z,48.10
2022-08-20T15:46:37.548Z,48.00
2022-08-20T15:49:10.735Z,48.10
2022-08-20T15:51:44.649Z,48.40
2022-08-20T15:54:22.331Z,48.30
2022-08-20T15:57:20.018Z,48.90
2022-08-20T16:00:14.117Z,48.70
2022-08-20T16:03:13.199Z,49.00
2022-08-20T16:05:55.749Z,48.80
2022-08-20T16:09:14.820Z,49.50
2022-08-20T16:11:54.393Z,49.10
2022-08-20T16:14:30.412Z,49.10
2022-08-20T16:17:04.553Z,48.80
2022-08-20T16:19:50.808Z,48.60
2022-08-20T16:22:19.077Z,48.80
2022-08-20T16:24:45.675Z,48.90
2022-08-20T16:27:51.972Z,49.20
2022-08-20T16:30:37.872Z,49.60
2022-08-20T16:33:34.861Z,49.20
2022-08-20T16:36:42.020Z,50.50
2022-08-20T16:39:18.454Z,49.70
2022-08-20T16:41:47.013Z,50.10
2022-08-20T16:44:36.307Z,50.30
2022-08-20T16:47:23.813Z,50.90
2022-08-20T16:50:33.135Z,51.70
2022-08-20T16:52:59.513Z,51.00
2022-08-20T16:55:25.915Z,50.40
2022-08-20T16:57:53.687Z,50.70
2022-08-20T17:00:44.928Z,51.40
2022-08-20T17:03:33.604Z,52.10
2022-08-20T17:06:27.245Z,51.50
2022-08-20T17:08:55.111Z,52.00
2022-08-20T17:11:31.519Z,51.60
2022-08-20T17:14:08.797Z,52.10
2022-08-20T17:16:39.594Z,52.10
2022-08-20T17:19:08.526Z,52.20
2022-08-20T17:21:38.170Z,52.00
2022-08-20T17:24:19.675Z,53.00
2022-08-20T17:27:00.079Z,53.10
2022-08-20T17:29:31.077Z,53.70
2022-08-20T17:32:29.539Z,53.30
2022-08-20T17:35:00.340Z,53.80
2022-08-20T17:37:34.546Z,54.20
2022-08-20T17:40:25.995Z,55.30
2022-08-20T17:42:57.739Z,55.00
2022-08-20T17:45:46.830Z,55.20
2022-08-20T17:48:38.521Z,55.20
2022-08-20T17:51:14.585Z,55.90
2022-08-20T17:53:43.317Z,56.20
2022-08-20T17:56:19.188Z,56.10
2022-08-20T17:59:05.666Z,55.90
2022-08-20T18:01:32.883Z,56.60
2022-08-20T18:04:00.422Z,57.00
2022-08-20T18:06:43.074Z,57.30
2022-08-20T18:09:36.385Z,57.50
2022-08-20T18:12:35.709Z,57.30
2022-08-20T18:15:24.953Z,58.60
2022-08-20T18:18:20.958Z,58.70
2022-08-20T18:21:08.879Z,59.30
2022-08-20T18:23:47.790Z,59.60
2022-08-20T18:26:32.113Z,60.00
2022-08-20T18:29:02.104Z,60.00
2022-08-20T18:32:11.939Z,60.40
2022-08-20T18:34:40.773Z,61.20
2022-08-20T18:37:24.784Z,61.60
2022-08-20T18:39:52.013Z,61.80
2022-08-20T18:42:25.266Z,62.10
2022-08-20T18:44:55.108Z,62.10
2022-08-20T18:47:37.508Z,62.70
2022-08-20T18:50:15.664Z,63.40
2022-08-20T18:52:54.375Z,63.30
2022-08-20T18:55:59.406Z,63.80
2022-08-20T18:58:49.242Z,64.60
2022-08-20T19:01:16.580Z,64.70
2022-08-20T19:03:50.791Z,64.80
2022-08-20T19:07:04.120Z,66.20
2022-08-20T19:09:54.498Z,66.10
2022-08-20T19:12:29.885Z,67.40
2022-08-20T19:15:35.952Z,67.80
2022-08-20T19:18:29.810Z,68.30
2022-08-20T19:20:59.091Z,68.80
2022-08-20T19:23:28.662Z,69.20
2022-08-20T19:26:25.725Z,69.80
2022-08-20T19:28:59.821Z,70.60
2022-08-20T19:31:32.014Z,70.60
2022-08-20T19:34:28.015Z,71.00
2022-08-20T19:37:35.502Z,71.70
2022-08-20T19:39:57.584Z,72.00
2022-08-20T19:42:31.805Z,72.30
2022-08-20T19:45:08.443Z,72.80
2022-08-20T19:47:37.185Z,73.40
2022-08-20T19:50:38.562Z,73.70
2022-08-20T19:53:29.898Z,74.50
2022-08-20T19:56:19.697Z,74.50
2022-08-20T19:59:02.176Z,75.30
2022-08-20T20:01:29.155Z,75.60
2022-08-20T20:03:57.215Z,75.80
2022-08-20T20:06:25.297Z,76.20
2022-08-20T20:09:16.656Z,76.30
2022-08-20T20:11:51.455Z,76.70
2022-08-20T20:14:22.409Z,76.60
2022-08-20T20:16:50.791Z,76.90
2022-08-20T20:19:27.146Z,77.50
2022-08-20T20:22:19.909Z,77.80
2022-08-20T20:25:03.534Z,78.40
2022-08-20T20:27:32.217Z,78.20
2022-08-20T20:30:21.091Z,78.40
2022-08-20T20:32:50.378Z,78.80
2022-08-20T20:35:30.055Z,79.00
2022-08-20T20:38:09.393Z,79.50
2022-08-20T20:40:52.095Z,79.80
2022-08-20T20:43:41.602Z,80.00
2022-08-20T20:46:23.209Z,80.10
2022-08-20T20:49:00.522Z,80.00
2022-08-20T20:51:38.042Z,80.20
2022-08-20T20:54:20.425Z,80.70
2022-08-20T20:57:01.505Z,80.80
2022-08-20T20:59:28.288Z,81.10
2022-08-20T21:01:54.511Z,81.10
2022-08-20T21:04:22.643Z,81.30
2022-08-20T21:06:50.203Z,81.60
2022-08-20T21:09:16.866Z,81.50
2022-08-20T21:11:43.155Z,81.80
2022-08-20T21:14:09.283Z,82.40
2022-08-20T21:16:35.539Z,82.70
2022-08-20T21:19:05.192Z,82.80
2022-08-20T21:21:31.681Z,83.10
2022-08-20T21:23:58.210Z,83.10
2022-08-20T21:26:27.029Z,83.30
2022-08-20T21:28:53.443Z,83.40
2022-08-20T21:31:19.589Z,83.60
2022-08-20T21:33:45.674Z,83.80
2022-08-20T21:36:13.502Z,83.80
2022-08-20T21:38:39.660Z,84.10
2022-08-20T21:41:05.875Z,84.40
2022-08-20T21:43:32.911Z,84.60
2022-08-20T21:46:00.727Z,84.60
2022-08-20T21:48:27.036Z,84.50
2022-08-20T21:50:53.189Z,84.80
2022-08-20T21:53:19.306Z,84.90
2022-08-20T21:55:45.682Z,84.80
2022-08-20T21:58:12.046Z,84.90
2022-08-20T22:00:55.975Z,84.90
2022-08-20T22:03:31.423Z,85.10
2022-08-20T22:05:59.865Z,85.10
2022-08-20T22:08:28.478Z,85.30
2022-08-20T22:10:56.545Z,85.40
2022-08-20T22:13:24.005Z,85.60
2022-08-20T22:15:50.300Z,85.80
2022-08-20T22:18:17.346Z,85.90
2022-08-20T22:20:43.849Z,86.10
2022-08-20T22:23:11.033Z,86.30
2022-08-20T22:25:37.443Z,86.20
2022-08-20T22:28:04.208Z,86.30
2022-08-20T22:30:31.009Z,86.30
2022-08-20T22:33:03.891Z,86.50
2022-08-20T22:35:31.827Z,86.70
2022-08-20T22:37:58.658Z,86.80
2022-08-20T22:40:25.933Z,87.00
2022-08-20T22:42:52.260Z,87.00
2022-08-20T22:45:18.573Z,87.00
2022-08-20T22:47:45.363Z,87.00
2022-08-20T22:50:13.048Z,87.10
2022-08-20T22:52:41.846Z,87.10
2022-08-20T22:55:09.520Z,87.00
2022-08-20T22:57:37.007Z,87.40
2022-08-20T23:00:11.173Z,87.80
2022-08-20T23:02:38.656Z,87.80
2022-08-20T23:05:05.336Z,87.70
2022-08-20T23:07:31.778Z,87.90
2022-08-20T23:09:58.019Z,87.90
2022-08-20T23:12:24.156Z,87.90
2022-08-20T23:14:52.192Z,88.50
2022-08-20T23:17:19.150Z,88.10
2022-08-20T23:19:47.556Z,88.20
2022-08-20T23:22:14.212Z,88.30
2022-08-20T23:24:41.261Z,88.50
2022-08-20T23:27:09.696Z,88.70
2022-08-20T23:29:35.935Z,88.90
2022-08-20T23:32:02.337Z,88.90
2022-08-20T23:34:28.800Z,88.90
2022-08-20T23:36:56.075Z,89.00
2022-08-20T23:39:23.324Z,89.20
2022-08-20T23:41:49.853Z,89.30
2022-08-20T23:44:25.148Z,89.20
2022-08-20T23:46:57.532Z,90.00
2022-08-20T23:49:24.655Z,89.30
2022-08-20T23:51:50.834Z,89.00
2022-08-20T23:54:17.319Z,89.10
2022-08-20T23:56:43.444Z,89.10
2022-08-20T23:59:09.912Z,89.20
